Skip Navigation LinksHome page > Weather > Current weather Skip Navigation Links

Current Weather

Moundou, Chad

For information only: do not use for flight planning or navigation.
Latest weather
Observation time Monday, December 18, 2017 1:00 PM WAT
Local time Monday, December 18, 2017 1:34 PM WAT
Flight conditions Visual Meteorological Conditions
Winds
Wind direction Northeast (40°)
Wind speed 9 mph
Visibility 6.2 mi.
Sky condition
Ceiling unlimited
Sky clear
Temperature 95°F
Dewpoint 46°F
Altimeter 29.88 in.Hg
Derived measurements
Relative humidity 19%
Heat index 95°F
Density altitude 2894 ft.
Remarks
Ceiling and visibility OK.
METAR FTTD 181200Z 04008KT CAVOK 35/08 Q1012

Settings

Location code

InnerDrive.Weather 4.0.6144.1 Release CLR 4.0.30319.36366
Copyright ©2015 Inner Drive Technology. All rights reserved. Portions Copyright ©1986-2015 David Braverman.

Find weather

Site navigation


Skip Navigation Links

Place info

Page info

PayPal - The safer, easier way to pay online!

Return home.

Copyright ©2017 Inner Drive Technology. Purveyors of fine, hand-crafted computer software. Page printed 2017-12-18T12:34:42 UTC.